createdAt,value
2022-12-13T00:00:00.563Z,4.40
2022-12-13T00:02:27.215Z,9.83
2022-12-13T00:04:53.953Z,3.40
2022-12-13T00:07:20.571Z,3.60
2022-12-13T00:09:47.273Z,4.13
2022-12-13T00:12:13.875Z,4.47
2022-12-13T00:14:40.490Z,6.33
2022-12-13T00:17:07.162Z,2.87
2022-12-13T00:19:33.904Z,3.50
2022-12-13T00:22:00.536Z,2.97
2022-12-13T00:24:27.409Z,2.87
2022-12-13T00:26:55.046Z,8.73
2022-12-13T00:29:21.780Z,5.47
2022-12-13T00:32:03.679Z,3.30
2022-12-13T00:34:30.434Z,2.53
2022-12-13T00:36:59.266Z,2.70
2022-12-13T00:39:26.271Z,6.30
2022-12-13T00:41:52.936Z,6.63
2022-12-13T00:44:20.056Z,4.63
2022-12-13T00:46:46.894Z,4.07
2022-12-13T00:49:13.631Z,4.07
2022-12-13T00:51:40.943Z,4.60
2022-12-13T00:54:07.520Z,6.47
2022-12-13T00:56:34.566Z,8.63
2022-12-13T00:59:01.226Z,2.73
2022-12-13T01:01:30.209Z,4.10
2022-12-13T01:03:58.851Z,6.30
2022-12-13T01:06:29.221Z,7.97
2022-12-13T01:08:55.936Z,3.37
2022-12-13T01:11:22.610Z,2.10
2022-12-13T01:13:49.394Z,4.43
2022-12-13T01:16:16.274Z,5.10
2022-12-13T01:18:42.971Z,1.70
2022-12-13T01:21:15.300Z,7.37
2022-12-13T01:23:43.175Z,6.53
2022-12-13T01:26:12.589Z,5.90
2022-12-13T01:28:39.474Z,2.37
2022-12-13T01:31:09.274Z,1.30
2022-12-13T01:33:36.693Z,3.90
2022-12-13T01:36:06.701Z,6.00
2022-12-13T01:38:37.723Z,2.87
2022-12-13T01:41:16.667Z,1.13
2022-12-13T01:43:44.592Z,5.30
2022-12-13T01:46:11.929Z,12.00
2022-12-13T01:48:43.256Z,3.80
2022-12-13T01:51:11.526Z,5.97
2022-12-13T01:53:40.683Z,2.40
2022-12-13T01:56:16.242Z,3.73
2022-12-13T01:58:43.066Z,4.30
2022-12-13T02:01:09.808Z,1.87
2022-12-13T02:03:37.011Z,1.70
2022-12-13T02:06:08.015Z,5.23
2022-12-13T02:08:35.991Z,2.23
2022-12-13T02:11:03.564Z,1.70
2022-12-13T02:13:30.240Z,2.53
2022-12-13T02:15:58.992Z,3.07
2022-12-13T02:18:40.700Z,13.23
2022-12-13T02:21:23.696Z,1.10
2022-12-13T02:23:56.314Z,7.17
2022-12-13T02:26:25.657Z,6.00
2022-12-13T02:29:30.339Z,1.50
2022-12-13T02:32:09.304Z,2.10
2022-12-13T02:34:44.339Z,3.33
2022-12-13T02:37:25.213Z,1.33
2022-12-13T02:40:08.954Z,3.00
2022-12-13T02:42:39.878Z,1.30
2022-12-13T02:45:20.370Z,2.50
2022-12-13T02:47:47.904Z,14.20
2022-12-13T02:50:15.336Z,2.30
2022-12-13T02:52:43.243Z,2.40
2022-12-13T02:55:14.217Z,1.43
2022-12-13T02:57:43.113Z,1.30
2022-12-13T03:00:12.583Z,28.03
2022-12-13T03:02:53.988Z,4.13
2022-12-13T03:05:45.129Z,3.50
2022-12-13T03:08:11.924Z,5.07
2022-12-13T03:10:47.082Z,7.87
2022-12-13T03:13:39.110Z,4.10
2022-12-13T03:16:12.881Z,3.77
2022-12-13T03:18:40.231Z,1.80
2022-12-13T03:21:09.205Z,1.20
2022-12-13T03:23:37.798Z,7.73
2022-12-13T03:26:15.681Z,11.63
2022-12-13T03:28:42.579Z,4.90
2022-12-13T03:31:09.567Z,4.63
2022-12-13T03:33:36.304Z,2.00
2022-12-13T03:36:03.418Z,2.43
2022-12-13T03:38:30.379Z,1.37
2022-12-13T03:41:03.354Z,7.50
2022-12-13T03:43:30.305Z,2.73
2022-12-13T03:45:57.344Z,4.43
2022-12-13T03:48:24.439Z,2.80
2022-12-13T03:50:53.086Z,0.90
2022-12-13T03:53:22.287Z,3.87
2022-12-13T03:55:50.358Z,1.93
2022-12-13T03:58:17.092Z,3.10
2022-12-13T04:00:44.531Z,4.40
2022-12-13T04:03:11.342Z,2.57
2022-12-13T04:05:38.119Z,2.43
2022-12-13T04:08:05.230Z,2.53
2022-12-13T04:10:48.830Z,2.27
2022-12-13T04:13:34.855Z,4.90
2022-12-13T04:16:02.413Z,0.80
2022-12-13T04:18:29.310Z,5.07
2022-12-13T04:20:57.432Z,2.30
2022-12-13T04:23:24.426Z,1.50
2022-12-13T04:25:51.635Z,3.77
2022-12-13T04:28:22.260Z,1.60
2022-12-13T04:30:53.537Z,2.80
2022-12-13T04:33:24.182Z,2.00
2022-12-13T04:35:51.438Z,3.53
2022-12-13T04:38:18.424Z,5.80
2022-12-13T04:40:45.005Z,9.10
2022-12-13T04:43:11.728Z,6.40
2022-12-13T04:45:38.424Z,3.97
2022-12-13T04:48:05.618Z,8.27
2022-12-13T04:50:32.417Z,6.53
2022-12-13T04:52:59.142Z,8.60
2022-12-13T04:55:26.236Z,4.67
2022-12-13T04:57:52.982Z,10.83
2022-12-13T05:00:22.120Z,4.33
2022-12-13T05:02:48.931Z,7.53
2022-12-13T05:05:15.965Z,8.93
2022-12-13T05:07:43.153Z,9.67
2022-12-13T05:10:11.120Z,6.33
2022-12-13T05:12:38.049Z,9.83
2022-12-13T05:15:05.873Z,3.60
2022-12-13T05:17:32.525Z,4.77
2022-12-13T05:19:59.081Z,3.87
2022-12-13T05:22:25.727Z,8.00
2022-12-13T05:24:52.338Z,5.73
2022-12-13T05:27:25.473Z,8.50
2022-12-13T05:30:03.613Z,3.53
2022-12-13T05:32:42.713Z,6.80
2022-12-13T05:35:14.670Z,4.77
2022-12-13T05:37:53.438Z,5.60
2022-12-13T05:40:25.610Z,5.13
2022-12-13T05:42:52.258Z,3.63
2022-12-13T05:45:28.940Z,2.20
2022-12-13T05:47:55.555Z,7.63
2022-12-13T05:50:22.213Z,4.23
2022-12-13T05:52:48.808Z,8.13
2022-12-13T05:55:15.862Z,5.20
2022-12-13T05:57:42.697Z,5.00
2022-12-13T06:00:29.218Z,6.70
2022-12-13T06:03:00.905Z,2.47
2022-12-13T06:05:29.506Z,4.97
2022-12-13T06:07:58.376Z,4.10
2022-12-13T06:10:34.822Z,2.90
2022-12-13T06:13:31.438Z,4.97
2022-12-13T06:15:52.504Z,4.10
2022-12-13T06:18:30.206Z,2.50
2022-12-13T06:20:58.502Z,4.33
2022-12-13T06:23:25.138Z,9.47
2022-12-13T06:25:51.953Z,8.00
2022-12-13T06:28:18.679Z,6.80
2022-12-13T06:30:45.366Z,5.80
2022-12-13T06:33:13.216Z,8.80
2022-12-13T06:35:41.489Z,4.33
2022-12-13T06:38:11.881Z,2.37
2022-12-13T06:40:38.830Z,5.10
2022-12-13T06:43:05.612Z,11.17
2022-12-13T06:45:32.361Z,7.67
2022-12-13T06:47:59.021Z,8.83
2022-12-13T06:50:25.709Z,5.13
2022-12-13T06:52:52.331Z,6.23
2022-12-13T06:55:23.966Z,10.47
2022-12-13T06:57:52.271Z,6.77
2022-12-13T07:00:23.263Z,7.50
2022-12-13T07:02:55.408Z,7.70
2022-12-13T07:05:22.641Z,4.30
2022-12-13T07:07:49.313Z,10.50
2022-12-13T07:10:21.853Z,12.03
2022-12-13T07:12:50.075Z,7.07
2022-12-13T07:15:16.881Z,12.30
2022-12-13T07:17:43.500Z,11.40
2022-12-13T07:20:11.001Z,6.77
2022-12-13T07:22:43.277Z,5.70
2022-12-13T07:25:28.637Z,8.40
2022-12-13T07:28:06.519Z,5.40
2022-12-13T07:30:41.015Z,10.57
2022-12-13T07:33:13.362Z,9.80
2022-12-13T07:35:55.362Z,10.37
2022-12-13T07:38:22.420Z,6.77
2022-12-13T07:40:49.112Z,13.23
2022-12-13T07:43:16.258Z,13.00
2022-12-13T07:45:43.141Z,17.10
2022-12-13T07:48:09.905Z,32.07
2022-12-13T07:50:37.902Z,23.83
2022-12-13T07:53:06.764Z,12.87
2022-12-13T07:55:34.211Z,30.63
2022-12-13T07:58:11.165Z,42.73
2022-12-13T08:00:39.271Z,21.30
2022-12-13T08:03:06.462Z,34.93
2022-12-13T08:05:38.736Z,31.30
2022-12-13T08:08:07.862Z,43.73
2022-12-13T08:10:34.710Z,50.27
2022-12-13T08:13:04.681Z,31.57
2022-12-13T08:15:31.539Z,28.53
2022-12-13T08:18:01.012Z,24.90
2022-12-13T08:20:27.833Z,26.47
2022-12-13T08:23:02.163Z,34.63
2022-12-13T08:25:30.629Z,18.10
2022-12-13T08:28:02.166Z,25.87
2022-12-13T08:30:29.616Z,10.67
2022-12-13T08:32:56.206Z,14.43
2022-12-13T08:35:22.978Z,11.63
2022-12-13T08:37:49.742Z,8.37
2022-12-13T08:40:16.433Z,12.23
2022-12-13T08:42:43.182Z,6.90
2022-12-13T08:45:10.642Z,9.53
2022-12-13T08:47:41.718Z,13.77
2022-12-13T08:50:09.144Z,5.10
2022-12-13T08:52:40.758Z,10.73
2022-12-13T08:55:10.444Z,6.13
2022-12-13T08:57:37.581Z,4.90
2022-12-13T09:00:05.723Z,4.70
2022-12-13T09:02:38.027Z,7.23
2022-12-13T09:05:07.562Z,11.30
2022-12-13T09:07:36.495Z,9.80
2022-12-13T09:10:25.685Z,10.60
2022-12-13T09:12:51.826Z,17.60
2022-12-13T09:15:22.285Z,11.40
2022-12-13T09:17:52.372Z,7.63
2022-12-13T09:20:29.698Z,9.13
2022-12-13T09:23:02.100Z,4.33
2022-12-13T09:25:36.814Z,8.67
2022-12-13T09:28:06.418Z,6.57
2022-12-13T09:30:33.080Z,8.03
2022-12-13T09:32:59.829Z,14.83
2022-12-13T09:35:45.050Z,12.37
2022-12-13T09:38:11.633Z,7.80
2022-12-13T09:40:39.139Z,9.00
2022-12-13T09:43:12.270Z,8.50
2022-12-13T09:45:45.089Z,6.90
2022-12-13T09:48:22.413Z,12.90
2022-12-13T09:50:58.022Z,5.47
2022-12-13T09:53:25.606Z,7.73
2022-12-13T09:56:11.084Z,2.97
2022-12-13T09:58:38.291Z,6.93
2022-12-13T10:01:05.876Z,5.90
2022-12-13T10:03:32.712Z,5.23
2022-12-13T10:06:02.172Z,5.67
2022-12-13T10:08:35.913Z,5.40
2022-12-13T10:11:03.323Z,9.43
2022-12-13T10:13:42.054Z,4.70
2022-12-13T10:16:26.810Z,6.10
2022-12-13T10:19:29.059Z,12.40
2022-12-13T10:22:01.621Z,7.37
2022-12-13T10:24:47.652Z,3.97
2022-12-13T10:27:16.203Z,6.73
2022-12-13T10:30:07.147Z,7.10
2022-12-13T10:32:43.251Z,9.53
2022-12-13T10:35:21.092Z,6.87
2022-12-13T10:37:47.912Z,10.03
2022-12-13T10:40:49.091Z,13.30
2022-12-13T10:43:24.013Z,3.23
2022-12-13T10:45:59.997Z,4.07
2022-12-13T10:48:42.102Z,5.53
2022-12-13T10:51:17.964Z,4.00
2022-12-13T10:53:49.533Z,3.90
2022-12-13T10:56:23.581Z,3.60
2022-12-13T10:59:16.503Z,3.70
2022-12-13T11:01:44.652Z,9.67
2022-12-13T11:04:33.509Z,13.67
2022-12-13T11:07:02.692Z,6.90
2022-12-13T11:09:38.269Z,9.57
2022-12-13T11:12:16.663Z,14.63
2022-12-13T11:15:02.121Z,9.17
2022-12-13T11:17:31.191Z,7.17
2022-12-13T11:20:04.412Z,5.73
2022-12-13T11:22:33.193Z,9.30
2022-12-13T11:25:23.239Z,6.50
2022-12-13T11:27:53.153Z,6.73
2022-12-13T11:30:38.822Z,2.37
2022-12-13T11:33:14.331Z,5.17
2022-12-13T11:35:49.362Z,5.77
2022-12-13T11:38:26.756Z,7.00
2022-12-13T11:41:32.675Z,13.30
2022-12-13T11:44:10.540Z,5.83
2022-12-13T11:46:45.814Z,7.30
2022-12-13T11:49:18.218Z,10.00
2022-12-13T11:51:50.473Z,5.20
2022-12-13T11:54:25.101Z,7.47
2022-12-13T11:56:59.325Z,7.00
2022-12-13T11:59:51.920Z,8.47
2022-12-13T12:02:24.677Z,4.03
2022-12-13T12:05:00.411Z,5.40
2022-12-13T12:07:37.101Z,6.67
2022-12-13T12:10:29.218Z,16.90
2022-12-13T12:13:02.581Z,5.70
2022-12-13T12:15:31.751Z,7.83
2022-12-13T12:17:58.737Z,9.00
2022-12-13T12:20:38.730Z,26.17
2022-12-13T12:23:41.842Z,36.53
2022-12-13T12:26:14.422Z,41.77
2022-12-13T12:28:55.452Z,51.60
2022-12-13T12:31:28.214Z,15.57
2022-12-13T12:34:13.425Z,14.80
2022-12-13T12:36:40.103Z,20.20
2022-12-13T12:39:26.187Z,33.17
2022-12-13T12:42:11.573Z,19.53
2022-12-13T12:44:53.424Z,18.60
2022-12-13T12:50:18.845Z,18.00
2022-12-13T12:52:48.602Z,18.50
2022-12-13T12:55:46.442Z,21.77
2022-12-13T12:58:15.897Z,16.00
2022-12-13T13:00:48.344Z,20.40
2022-12-13T13:03:26.900Z,7.60
2022-12-13T13:06:02.318Z,13.10
2022-12-13T13:08:55.049Z,24.43
2022-12-13T13:11:26.046Z,16.10
2022-12-13T13:14:07.052Z,20.10
2022-12-13T13:16:40.601Z,14.13
2022-12-13T13:19:16.709Z,25.17
2022-12-13T13:21:55.312Z,11.67
2022-12-13T13:24:30.621Z,28.73
2022-12-13T13:27:30.429Z,16.67
2022-12-13T13:30:20.560Z,18.67
2022-12-13T13:32:48.024Z,9.63
2022-12-13T13:35:33.039Z,26.23
2022-12-13T13:38:04.052Z,17.10
2022-12-13T13:40:36.543Z,25.17
2022-12-13T13:43:08.853Z,20.17
2022-12-13T13:45:54.190Z,17.83
2022-12-13T13:48:42.229Z,12.97
2022-12-13T13:51:54.802Z,14.97
2022-12-13T13:54:28.891Z,30.53
2022-12-13T13:58:07.531Z,14.00
2022-12-13T14:00:44.132Z,8.13
2022-12-13T14:03:34.070Z,12.90
2022-12-13T14:06:20.207Z,7.80
2022-12-13T14:09:05.381Z,23.20
2022-12-13T14:11:42.610Z,13.77
2022-12-13T14:14:43.507Z,13.37
2022-12-13T14:17:55.894Z,12.50
2022-12-13T14:20:50.343Z,9.90
2022-12-13T14:23:40.076Z,10.30
2022-12-13T14:26:30.673Z,12.53
2022-12-13T14:28:59.782Z,20.83
2022-12-13T14:31:37.414Z,18.73
2022-12-13T14:34:05.291Z,11.53
2022-12-13T14:36:35.518Z,8.83
2022-12-13T14:39:24.834Z,20.63
2022-12-13T14:41:56.702Z,16.67
2022-12-13T14:44:25.630Z,19.67
2022-12-13T14:46:56.732Z,21.70
2022-12-13T14:49:25.319Z,20.97
2022-12-13T14:52:01.463Z,18.10
2022-12-13T14:54:32.603Z,43.30
2022-12-13T14:57:04.648Z,25.23
2022-12-13T14:59:33.328Z,16.43
2022-12-13T15:02:03.026Z,21.00
2022-12-13T15:04:32.756Z,9.87
2022-12-13T15:07:06.485Z,33.53
2022-12-13T15:09:38.883Z,21.23
2022-12-13T15:12:24.848Z,20.10
2022-12-13T15:15:24.762Z,31.53
2022-12-13T15:18:23.870Z,24.37
2022-12-13T15:20:52.021Z,17.60
2022-12-13T15:23:21.463Z,15.80
2022-12-13T15:26:03.822Z,26.20
2022-12-13T15:28:36.287Z,20.33
2022-12-13T15:31:05.729Z,12.30
2022-12-13T15:33:36.783Z,17.80
2022-12-13T15:36:16.112Z,9.90
2022-12-13T15:38:57.194Z,13.60
2022-12-13T15:41:28.247Z,17.23
2022-12-13T15:43:57.733Z,11.37
2022-12-13T15:46:38.480Z,17.53
2022-12-13T15:49:07.230Z,11.50
2022-12-13T15:51:33.949Z,21.40
2022-12-13T15:54:17.376Z,12.27
2022-12-13T15:57:02.821Z,16.03
2022-12-13T15:59:32.239Z,15.40
2022-12-13T16:01:59.440Z,9.13
2022-12-13T16:04:28.802Z,14.37
2022-12-13T16:06:55.949Z,13.37
2022-12-13T16:09:25.774Z,7.37
2022-12-13T16:11:53.509Z,20.53
2022-12-13T16:14:32.969Z,7.17
2022-12-13T16:17:22.385Z,9.60
2022-12-13T16:19:50.392Z,9.90
2022-12-13T16:22:22.701Z,6.13
2022-12-13T16:24:51.167Z,11.40
2022-12-13T16:27:18.203Z,13.20
2022-12-13T16:29:46.480Z,20.63
2022-12-13T16:32:15.361Z,15.07
2022-12-13T16:34:43.044Z,11.47
2022-12-13T16:37:26.236Z,5.70
2022-12-13T16:39:53.782Z,6.90
2022-12-13T16:42:20.640Z,7.93
2022-12-13T16:44:48.325Z,9.43
2022-12-13T16:47:24.713Z,7.63
2022-12-13T16:50:04.329Z,9.00
2022-12-13T16:52:32.888Z,6.83
2022-12-13T16:55:01.283Z,8.00
2022-12-13T16:57:28.873Z,6.53
2022-12-13T16:59:56.159Z,9.07
2022-12-13T17:02:23.230Z,6.43
2022-12-13T17:04:50.858Z,8.73
2022-12-13T17:07:17.965Z,8.40
2022-12-13T17:09:45.868Z,8.33
2022-12-13T17:12:13.625Z,6.60
2022-12-13T17:14:40.508Z,9.80
2022-12-13T17:17:09.770Z,7.20
2022-12-13T17:19:40.550Z,6.87
2022-12-13T17:22:08.537Z,5.37
2022-12-13T17:24:36.303Z,5.43
2022-12-13T17:27:03.798Z,7.63
2022-12-13T17:29:32.916Z,5.10
2022-12-13T17:32:02.354Z,7.33
2022-12-13T17:34:30.647Z,4.17
2022-12-13T17:36:58.724Z,6.33
2022-12-13T17:39:27.457Z,4.73
2022-12-13T17:41:56.136Z,6.90
2022-12-13T17:44:26.348Z,10.73
2022-12-13T17:46:55.794Z,14.03
2022-12-13T17:49:24.585Z,11.47
2022-12-13T17:51:55.681Z,13.10
2022-12-13T17:54:24.732Z,11.73
2022-12-13T17:56:53.364Z,8.53
2022-12-13T17:59:21.929Z,12.63
2022-12-13T18:01:50.397Z,5.00
2022-12-13T18:04:18.771Z,8.83
2022-12-13T18:06:45.376Z,4.43
2022-12-13T18:09:14.599Z,2.47
2022-12-13T18:11:41.582Z,7.90
2022-12-13T18:14:11.533Z,14.07
2022-12-13T18:16:39.352Z,22.60
2022-12-13T18:19:11.952Z,7.77
2022-12-13T18:21:38.743Z,11.77
2022-12-13T18:24:09.910Z,13.60
2022-12-13T18:26:36.558Z,10.60
2022-12-13T18:29:04.552Z,20.60
2022-12-13T18:31:31.408Z,18.40
2022-12-13T18:33:58.102Z,15.40
2022-12-13T18:36:25.494Z,11.70
2022-12-13T18:38:52.252Z,11.80
2022-12-13T18:41:21.405Z,14.70
2022-12-13T18:43:48.250Z,10.33
2022-12-13T18:46:16.087Z,10.90
2022-12-13T18:48:42.886Z,4.77
2022-12-13T18:51:10.692Z,7.73
2022-12-13T18:53:38.548Z,4.97
2022-12-13T18:56:16.187Z,5.07
2022-12-13T18:58:45.471Z,5.93
2022-12-13T19:01:12.925Z,4.37
2022-12-13T19:03:40.326Z,10.30
2022-12-13T19:06:07.666Z,6.60
2022-12-13T19:08:36.471Z,6.03
2022-12-13T19:11:04.030Z,8.20
2022-12-13T19:13:31.913Z,7.23
2022-12-13T19:16:05.474Z,5.43
2022-12-13T19:18:32.124Z,9.23
2022-12-13T19:20:58.915Z,8.63
2022-12-13T19:23:25.959Z,9.93
2022-12-13T19:25:52.764Z,7.23
2022-12-13T19:28:20.084Z,13.60
2022-12-13T19:30:47.874Z,12.87
2022-12-13T19:33:15.239Z,5.73
2022-12-13T19:35:46.739Z,7.93
2022-12-13T19:38:13.561Z,19.33
2022-12-13T19:40:41.794Z,9.00
2022-12-13T19:43:08.964Z,9.67
2022-12-13T19:45:35.768Z,11.70
2022-12-13T19:48:02.462Z,11.23
2022-12-13T19:50:29.588Z,14.30
2022-12-13T19:52:56.375Z,12.20
2022-12-13T19:55:23.003Z,15.33
2022-12-13T19:57:49.831Z,16.17
2022-12-13T20:00:17.032Z,22.37
2022-12-13T20:02:43.928Z,17.27
2022-12-13T20:05:10.740Z,14.47
2022-12-13T20:07:37.372Z,11.77
2022-12-13T20:10:05.295Z,16.30
2022-12-13T20:12:37.029Z,14.60
2022-12-13T20:15:08.358Z,17.47
2022-12-13T20:17:35.996Z,11.63
2022-12-13T20:20:03.927Z,9.60
2022-12-13T20:22:31.180Z,9.40
2022-12-13T20:24:57.912Z,13.97
2022-12-13T20:27:24.639Z,10.90
2022-12-13T20:29:51.433Z,6.43
2022-12-13T20:32:21.128Z,10.37
2022-12-13T20:34:51.718Z,5.63
2022-12-13T20:37:21.549Z,7.20
2022-12-13T20:39:48.201Z,6.80
2022-12-13T20:42:14.889Z,9.17
2022-12-13T20:44:41.451Z,11.97
2022-12-13T20:47:08.163Z,13.83
2022-12-13T20:49:34.848Z,25.67
2022-12-13T20:52:01.727Z,15.40
2022-12-13T20:54:28.496Z,11.50
2022-12-13T20:56:55.164Z,7.63
2022-12-13T20:59:21.762Z,6.00
2022-12-13T21:01:49.175Z,12.83
2022-12-13T21:04:16.252Z,11.17
2022-12-13T21:06:43.477Z,6.10
2022-12-13T21:09:11.105Z,6.77
2022-12-13T21:11:42.104Z,14.73
2022-12-13T21:14:22.278Z,9.57
2022-12-13T21:16:51.774Z,5.53
2022-12-13T21:19:22.915Z,3.20
2022-12-13T21:21:49.899Z,6.73
2022-12-13T21:24:18.383Z,20.80
2022-12-13T21:26:45.555Z,9.07
2022-12-13T21:29:13.247Z,7.40
2022-12-13T21:31:41.478Z,7.87
2022-12-13T21:34:08.205Z,8.20
2022-12-13T21:36:37.176Z,4.87
2022-12-13T21:39:20.036Z,8.10
2022-12-13T21:41:46.667Z,6.87
2022-12-13T21:44:17.415Z,5.07
2022-12-13T21:49:30.774Z,3.97
2022-12-13T21:51:57.388Z,8.50
2022-12-13T21:54:24.106Z,13.43
2022-12-13T21:57:09.335Z,16.40
2022-12-13T21:59:35.952Z,9.33
2022-12-13T22:02:15.801Z,9.57
2022-12-13T22:04:56.902Z,12.40
2022-12-13T22:07:30.533Z,18.63
2022-12-13T22:09:57.821Z,10.87
2022-12-13T22:12:25.492Z,9.73
2022-12-13T22:14:53.107Z,15.37
2022-12-13T22:17:19.800Z,17.43
2022-12-13T22:19:48.537Z,16.00
2022-12-13T22:22:19.502Z,10.80
2022-12-13T22:24:52.956Z,17.03
2022-12-13T22:27:23.619Z,42.73
2022-12-13T22:29:55.321Z,22.83
2022-12-13T22:32:22.487Z,11.07
2022-12-13T22:34:49.604Z,12.13
2022-12-13T22:37:16.360Z,8.03
2022-12-13T22:39:42.947Z,9.53
2022-12-13T22:42:09.605Z,12.43
2022-12-13T22:44:36.318Z,11.90
2022-12-13T22:47:02.963Z,11.60
2022-12-13T22:49:29.553Z,8.03
2022-12-13T22:51:56.138Z,13.53
2022-12-13T22:54:22.828Z,15.90
2022-12-13T22:56:50.690Z,20.03
2022-12-13T22:59:17.532Z,6.63
2022-12-13T23:01:47.469Z,7.43
2022-12-13T23:04:14.613Z,19.07
2022-12-13T23:06:41.938Z,13.80
2022-12-13T23:09:12.062Z,7.83
2022-12-13T23:11:57.378Z,20.80
2022-12-13T23:14:32.989Z,11.97
2022-12-13T23:17:02.700Z,6.33
2022-12-13T23:19:49.842Z,18.30
2022-12-13T23:22:16.467Z,9.97
2022-12-13T23:24:43.196Z,8.73
2022-12-13T23:27:09.838Z,11.13
2022-12-13T23:29:36.607Z,8.93
2022-12-13T23:32:03.194Z,22.00
2022-12-13T23:34:29.796Z,14.60
2022-12-13T23:36:56.418Z,13.50
2022-12-13T23:39:23.068Z,14.40
2022-12-13T23:41:49.867Z,16.00
2022-12-13T23:44:16.503Z,8.47
2022-12-13T23:46:48.411Z,4.07
2022-12-13T23:49:15.862Z,9.67
2022-12-13T23:51:42.681Z,7.97
2022-12-13T23:54:11.827Z,8.90
2022-12-13T23:56:38.411Z,11.70
2022-12-13T23:59:05.018Z,11.83
